Terminal Aerodrome Forecast
Issued by NWS

Current Version | Previous Version | Text Only | Print | Product List | Glossary On
Versions: 1 2 3 4 5 6 7 8 9 10 11 12 13 14 15 16 17 18 19
000
FTUS41 KBOX 291121
TAFACK
TAF
KACK 291121Z 2912/3012 09011KT P6SM -RA OVC004
     FM291400 09018KT 3SM -RA BR OVC008
     FM292300 04013KT P6SM OVC008
     FM300500 03010KT P6SM -DZ BKN010=

USA.gov is the U.S. government's official web portal to all federal, state and local government web resources and services.